Time;durP1;ratioP1;P1;durP2;ratioP2;P2;SDS_P1;SDS_P2;PMS_P1;PMS_P2;Temp;Humidity;BMP_temperature;BMP_pressure;BME280_temperature;BME280_humidity;BME280_pressure;Samples;Min_cycle;Max_cycle;Signal;HPM_P1;HPM_P2
2021/05/17 00:02:01;;;;;;;4.67;0.47;;;11.60;99.90;;;;;;5034267;28;20168;-71
2021/05/17 00:04:32;;;;;;;4.60;0.60;;;11.60;99.90;;;;;;5035736;28;20740;-71
2021/05/17 00:07:01;;;;;;;4.65;0.60;;;11.60;99.90;;;;;;5014197;28;20241;-71
2021/05/17 00:09:27;;;;;;;5.05;0.60;;;11.60;99.90;;;;;;5025802;28;20260;-72
2021/05/17 00:11:54;;;;;;;4.50;0.57;;;11.50;99.90;;;;;;5054101;28;20578;-71
2021/05/17 00:14:21;;;;;;;6.43;1.27;;;11.60;99.90;;;;;;5049089;28;20228;-71
2021/05/17 00:16:47;;;;;;;5.20;0.70;;;11.60;99.90;;;;;;5033885;28;20174;-71
2021/05/17 00:19:14;;;;;;;4.63;0.55;;;11.60;99.90;;;;;;5033377;28;20186;-71
2021/05/17 00:21:40;;;;;;;5.15;0.70;;;11.60;99.90;;;;;;5033782;28;20644;-70
2021/05/17 00:24:07;;;;;;;4.70;0.50;;;11.60;99.90;;;;;;5035155;28;20175;-70
2021/05/17 00:26:34;;;;;;;4.78;0.60;;;11.50;99.90;;;;;;5053526;28;20594;-70
2021/05/17 00:29:00;;;;;;;5.05;0.50;;;11.50;99.90;;;;;;5033987;28;20210;-71
2021/05/17 00:31:25;;;;;;;4.53;0.40;;;11.40;99.90;;;;;;5032774;28;20173;-70
2021/05/17 00:33:51;;;;;;;4.57;0.40;;;11.40;99.90;;;;;;5050241;28;20412;-71
2021/05/17 00:36:17;;;;;;;4.77;0.70;;;11.40;99.90;;;;;;5053657;28;20813;-71
2021/05/17 00:38:43;;;;;;;4.80;0.70;;;11.30;99.90;;;;;;5037918;28;20236;-71
2021/05/17 00:41:09;;;;;;;4.50;0.40;;;11.30;99.90;;;;;;5033722;28;20850;-71
2021/05/17 00:43:37;;;;;;;4.95;0.60;;;11.30;99.90;;;;;;5035005;28;20431;-70
2021/05/17 00:46:07;;;;;;;5.05;0.80;;;11.20;99.90;;;;;;5020497;28;20202;-72
2021/05/17 00:48:35;;;;;;;5.00;0.57;;;11.30;99.90;;;;;;5041349;28;20299;-71
2021/05/17 00:51:04;;;;;;;4.55;0.50;;;11.20;99.90;;;;;;5053408;28;20166;-71
2021/05/17 00:53:32;;;;;;;4.70;0.50;;;11.20;99.90;;;;;;5040226;28;20536;-70
2021/05/17 00:55:57;;;;;;;4.53;0.50;;;11.30;99.90;;;;;;5032999;28;20178;-70
2021/05/17 00:58:24;;;;;;;4.53;0.40;;;;;;;;;;5043005;28;20544;-69
2021/05/17 01:00:49;;;;;;;4.70;0.68;;;11.00;99.90;;;;;;5052708;28;20412;-70
2021/05/17 01:03:15;;;;;;;4.50;0.40;;;11.20;99.90;;;;;;5041460;28;20191;-71
2021/05/17 01:05:41;;;;;;;8.83;0.80;;;11.20;99.90;;;;;;5033227;28;20205;-72
2021/05/17 01:08:14;;;;;;;4.57;0.40;;;11.20;99.90;;;;;;5041428;28;20204;-69
2021/05/17 01:10:43;;;;;;;4.70;0.63;;;11.20;99.90;;;;;;5053285;28;20248;-69
2021/05/17 01:13:10;;;;;;;4.75;0.70;;;11.20;99.90;;;;;;5047632;28;20169;-69
2021/05/17 01:15:37;;;;;;;4.68;0.50;;;11.20;99.90;;;;;;5052970;28;20726;-69
2021/05/17 01:18:03;;;;;;;4.80;0.50;;;11.30;99.90;;;;;;5045457;28;20560;-69
2021/05/17 01:20:32;;;;;;;4.60;0.38;;;11.30;99.90;;;;;;5030812;28;20178;-69
2021/05/17 01:25:53;;;;;;;4.80;0.68;;;11.30;99.90;;;;;;5051030;28;20224;-70
2021/05/17 01:28:22;;;;;;;5.38;0.50;;;11.20;99.90;;;;;;5042155;28;20190;-69
2021/05/17 01:30:52;;;;;;;4.90;0.60;;;11.20;99.90;;;;;;5031042;28;20166;-69
2021/05/17 01:33:18;;;;;;;5.10;0.60;;;11.20;99.90;;;;;;5038814;28;20181;-67
2021/05/17 01:35:49;;;;;;;5.23;0.70;;;11.20;99.90;;;;;;5044672;28;20205;-70
2021/05/17 01:38:19;;;;;;;5.20;0.50;;;11.30;99.90;;;;;;5039409;28;20407;-69
2021/05/17 01:40:46;;;;;;;4.65;0.63;;;11.20;99.90;;;;;;5052967;28;20528;-69
2021/05/17 01:43:14;;;;;;;4.55;0.40;;;11.20;99.90;;;;;;5029385;28;20178;-71
2021/05/17 01:45:42;;;;;;;4.60;0.50;;;11.20;99.90;;;;;;5034628;28;20225;-71
2021/05/17 01:48:09;;;;;;;4.57;0.40;;;11.20;99.90;;;;;;5041851;28;20209;-70
2021/05/17 01:50:36;;;;;;;4.70;0.50;;;11.20;99.90;;;;;;5056447;28;20192;-70
2021/05/17 01:53:04;;;;;;;5.00;1.25;;;11.20;99.90;;;;;;5052496;28;20531;-69
2021/05/17 01:55:30;;;;;;;4.80;0.50;;;11.20;99.90;;;;;;5018811;28;20186;-70
2021/05/17 01:58:05;;;;;;;4.65;0.50;;;11.10;99.90;;;;;;5038563;28;20170;-68
2021/05/17 02:00:31;;;;;;;6.90;0.77;;;11.10;99.90;;;;;;5036179;28;20185;-70
2021/05/17 02:02:58;;;;;;;4.70;0.60;;;11.00;99.90;;;;;;5037454;28;20189;-70
2021/05/17 02:05:25;;;;;;;4.70;0.52;;;11.00;99.90;;;;;;5036194;28;20425;-71
2021/05/17 02:07:55;;;;;;;4.60;0.50;;;10.90;99.90;;;;;;5047743;28;20205;-70
2021/05/17 02:10:21;;;;;;;4.80;0.50;;;11.00;99.90;;;;;;5036492;28;20177;-69
2021/05/17 02:12:51;;;;;;;4.55;0.45;;;11.00;99.90;;;;;;5033182;28;20235;-70
2021/05/17 02:15:18;;;;;;;4.60;0.60;;;11.00;99.90;;;;;;5022354;28;20194;-70
2021/05/17 02:17:45;;;;;;;4.60;0.60;;;11.00;99.90;;;;;;5049499;28;20247;-71
2021/05/17 02:20:22;;;;;;;4.60;0.50;;;11.00;99.90;;;;;;5045702;28;20188;-69
2021/05/17 02:22:48;;;;;;;4.90;0.60;;;11.00;99.90;;;;;;5035161;28;20186;-70
2021/05/17 02:25:14;;;;;;;4.60;0.50;;;11.00;99.90;;;;;;5045348;28;20200;-71
2021/05/17 02:27:41;;;;;;;5.10;0.70;;;11.00;99.90;;;;;;5048242;28;20201;-71
2021/05/17 02:30:11;;;;;;;4.57;0.50;;;11.00;99.90;;;;;;5016309;28;20629;-70
2021/05/17 02:32:37;;;;;;;4.60;0.50;;;11.00;99.90;;;;;;5027810;28;20228;-69
2021/05/17 02:35:03;;;;;;;4.60;0.50;;;11.00;99.90;;;;;;5055399;28;20189;-70
2021/05/17 02:37:29;;;;;;;4.65;0.55;;;11.00;99.90;;;;;;5046516;28;20492;-70
2021/05/17 02:39:55;;;;;;;4.60;0.50;;;11.00;99.90;;;;;;5048706;28;20210;-70
2021/05/17 02:42:23;;;;;;;6.00;0.50;;;11.00;99.90;;;;;;5019945;28;20990;-71
2021/05/17 02:44:49;;;;;;;4.53;0.40;;;11.00;99.90;;;;;;5052019;28;20259;-70
2021/05/17 02:47:15;;;;;;;5.53;0.60;;;11.10;99.90;;;;;;5036142;28;20218;-71
2021/05/17 02:49:41;;;;;;;4.90;0.63;;;11.10;99.90;;;;;;5055538;28;20438;-70
2021/05/17 02:52:07;;;;;;;4.70;0.67;;;11.10;99.90;;;;;;5055579;28;20396;-69
2021/05/17 02:54:37;;;;;;;5.25;0.50;;;11.10;99.90;;;;;;5035056;28;20440;-70
2021/05/17 02:57:04;;;;;;;4.57;0.40;;;11.10;99.90;;;;;;5035320;28;20181;-70
2021/05/17 03:00:10;;;;;;;4.60;0.50;;;11.10;99.90;;;;;;5051948;28;20188;-70
2021/05/17 03:02:46;;;;;;;5.93;0.70;;;11.00;99.90;;;;;;5038295;28;20173;-71
2021/05/17 03:05:12;;;;;;;4.60;0.50;;;11.00;99.90;;;;;;5055027;28;20185;-70
2021/05/17 03:07:43;;;;;;;5.75;0.75;;;11.00;99.90;;;;;;5052126;28;20198;-70
2021/05/17 03:10:10;;;;;;;4.57;0.50;;;10.90;99.90;;;;;;5016387;28;20233;-70
2021/05/17 03:12:39;;;;;;;4.60;0.40;;;10.90;99.90;;;;;;5019345;28;20167;-70
2021/05/17 03:15:07;;;;;;;4.50;0.40;;;10.80;99.90;;;;;;5054723;28;20682;-69
2021/05/17 03:17:33;;;;;;;4.75;0.60;;;10.80;99.90;;;;;;5052825;28;20169;-69
2021/05/17 03:19:58;;;;;;;4.80;0.53;;;10.80;99.90;;;;;;5035139;28;20185;-69
2021/05/17 03:22:30;;;;;;;4.80;0.60;;;10.80;99.90;;;;;;5050662;28;21015;-68
2021/05/17 03:24:57;;;;;;;4.72;0.65;;;10.80;99.90;;;;;;5034273;28;20668;-69
2021/05/17 03:27:28;;;;;;;4.63;0.45;;;10.80;99.90;;;;;;5049794;28;20219;-69
2021/05/17 03:29:55;;;;;;;4.72;0.65;;;10.80;99.90;;;;;;5054770;28;20334;-69
2021/05/17 03:32:23;;;;;;;5.38;0.60;;;10.80;99.90;;;;;;5039898;28;20170;-68
2021/05/17 03:34:48;;;;;;;4.60;0.40;;;10.80;99.90;;;;;;5034243;28;20602;-69
2021/05/17 03:37:14;;;;;;;4.57;0.40;;;10.80;99.90;;;;;;5047453;28;20201;-69
2021/05/17 03:39:47;;;;;;;4.72;0.45;;;10.90;99.90;;;;;;5034555;28;20181;-70
2021/05/17 03:42:12;;;;;;;5.38;0.60;;;10.90;99.90;;;;;;5047598;28;20168;-69
2021/05/17 03:44:38;;;;;;;4.50;0.40;;;10.80;99.90;;;;;;5036218;28;20551;-71
2021/05/17 03:47:04;;;;;;;4.80;0.50;;;10.80;99.90;;;;;;5042242;28;20185;-70
2021/05/17 03:49:30;;;;;;;4.57;0.40;;;10.80;99.90;;;;;;5034680;28;20178;-69
2021/05/17 03:51:56;;;;;;;6.20;0.80;;;10.80;99.90;;;;;;5043733;28;20943;-71
2021/05/17 03:54:21;;;;;;;4.60;0.50;;;10.80;99.90;;;;;;5035801;28;20440;-70
2021/05/17 03:56:47;;;;;;;4.80;0.50;;;10.80;99.90;;;;;;5035245;28;20181;-69
2021/05/17 03:59:15;;;;;;;4.70;0.60;;;10.80;99.90;;;;;;5034406;28;20174;-69
2021/05/17 04:01:41;;;;;;;5.10;0.60;;;10.80;99.90;;;;;;5041369;28;20207;-70
2021/05/17 04:04:08;;;;;;;4.57;0.43;;;10.80;99.90;;;;;;5037796;28;20170;-69
2021/05/17 04:14:46;;;;;;;4.80;0.50;;;10.80;99.90;;;;;;5033708;28;20718;-68
2021/05/17 04:17:12;;;;;;;4.60;0.60;;;10.90;99.90;;;;;;5016493;28;20189;-70
2021/05/17 04:19:37;;;;;;;4.60;0.40;;;10.90;99.90;;;;;;5020185;28;20178;-70
2021/05/17 04:22:03;;;;;;;4.90;0.50;;;10.90;99.90;;;;;;5032443;28;20177;-71
2021/05/17 04:24:29;;;;;;;4.80;0.60;;;10.90;99.90;;;;;;5053318;28;20266;-72
2021/05/17 04:26:54;;;;;;;5.10;0.53;;;11.00;99.90;;;;;;5038681;28;20181;-72
2021/05/17 04:29:20;;;;;;;4.67;0.53;;;11.00;99.90;;;;;;5028030;28;20332;-70
2021/05/17 04:31:47;;;;;;;4.90;0.50;;;11.10;99.90;;;;;;5014087;28;20174;-69
2021/05/17 04:34:13;;;;;;;4.90;0.60;;;11.10;99.90;;;;;;5032677;28;20572;-72
2021/05/17 04:36:38;;;;;;;4.60;0.50;;;11.20;99.90;;;;;;5053421;28;20166;-71
2021/05/17 04:39:05;;;;;;;6.80;1.00;;;11.20;99.90;;;;;;5045443;28;20272;-71
2021/05/17 04:41:30;;;;;;;4.65;0.60;;;11.30;99.90;;;;;;5040710;28;20205;-70
2021/05/17 04:43:56;;;;;;;4.67;0.50;;;11.30;99.90;;;;;;5038768;28;20652;-70
2021/05/17 04:46:22;;;;;;;4.70;0.63;;;11.30;99.90;;;;;;5052856;28;20655;-72
2021/05/17 04:48:50;;;;;;;4.67;0.50;;;11.30;99.90;;;;;;5048465;28;20221;-72
2021/05/17 04:51:17;;;;;;;4.68;0.45;;;11.30;99.90;;;;;;5032864;28;20236;-69
2021/05/17 04:53:43;;;;;;;4.80;0.45;;;11.40;99.90;;;;;;5035878;28;20173;-70
2021/05/17 04:56:09;;;;;;;4.80;0.50;;;11.50;99.90;;;;;;5053244;28;20590;-69
2021/05/17 04:58:35;;;;;;;4.60;0.40;;;11.60;99.90;;;;;;5050718;28;20189;-70
2021/05/17 05:01:00;;;;;;;4.80;0.50;;;11.70;99.90;;;;;;5033513;28;20166;-70
2021/05/17 05:03:26;;;;;;;4.77;0.47;;;11.90;99.90;;;;;;5033337;28;20170;-69
2021/05/17 05:05:51;;;;;;;4.63;0.60;;;11.90;99.90;;;;;;5038427;28;20190;-69
2021/05/17 05:08:17;;;;;;;4.50;0.40;;;12.00;99.90;;;;;;5033330;28;20191;-70
2021/05/17 05:10:43;;;;;;;5.57;0.53;;;12.10;99.90;;;;;;5051513;28;20258;-70
2021/05/17 05:13:08;;;;;;;4.90;0.60;;;12.10;99.90;;;;;;5052760;28;20531;-70
2021/05/17 05:15:34;;;;;;;5.13;0.80;;;12.10;99.90;;;;;;5035985;28;20705;-70
2021/05/17 05:18:00;;;;;;;4.50;0.50;;;12.10;99.90;;;;;;5036230;28;20580;-70
2021/05/17 05:20:27;;;;;;;4.43;0.40;;;12.00;99.90;;;;;;5029929;28;20181;-71
2021/05/17 05:22:52;;;;;;;4.50;0.57;;;12.10;99.90;;;;;;5017424;28;20225;-71
2021/05/17 05:25:19;;;;;;;4.90;0.50;;;12.10;99.90;;;;;;5045095;28;20213;-71
2021/05/17 05:27:48;;;;;;;5.97;0.85;;;12.10;99.90;;;;;;5045524;28;20324;-70
2021/05/17 05:30:21;;;;;;;4.35;0.40;;;12.20;99.90;;;;;;5036996;28;20170;-70
2021/05/17 05:32:53;;;;;;;4.47;0.40;;;12.20;99.90;;;;;;5037864;28;20174;-71
2021/05/17 05:35:19;;;;;;;6.57;0.50;;;12.10;99.90;;;;;;5023907;28;20278;-73
2021/05/17 05:37:45;;;;;;;4.70;0.50;;;12.10;99.90;;;;;;5047359;28;20181;-70
2021/05/17 05:40:12;;;;;;;4.50;0.40;;;12.10;99.90;;;;;;5056809;28;20423;-71
2021/05/17 05:42:37;;;;;;;4.70;0.40;;;12.20;99.90;;;;;;5042122;28;20648;-72
2021/05/17 05:45:09;;;;;;;5.20;1.00;;;12.40;99.90;;;;;;5037269;28;20281;-70
2021/05/17 05:47:35;;;;;;;5.30;0.77;;;12.60;99.90;;;;;;5036371;28;20784;-72
2021/05/17 05:50:01;;;;;;;4.40;0.50;;;12.80;99.90;;;;;;5037221;28;20202;-72
2021/05/17 05:52:27;;;;;;;4.60;0.63;;;12.90;99.90;;;;;;5056689;28;20641;-73
2021/05/17 05:54:52;;;;;;;4.40;0.50;;;12.90;99.90;;;;;;5056060;28;20453;-71
2021/05/17 05:57:18;;;;;;;4.50;0.50;;;12.90;99.90;;;;;;5037117;28;20178;-71
2021/05/17 05:59:44;;;;;;;4.60;0.50;;;13.10;99.90;;;;;;5036420;28;20182;-70
2021/05/17 06:02:10;;;;;;;4.20;0.50;;;13.30;99.90;;;;;;5039644;28;20430;-71
2021/05/17 06:04:35;;;;;;;4.20;0.50;;;13.30;99.90;;;;;;5035583;28;20202;-68
2021/05/17 06:07:01;;;;;;;4.00;0.40;;;13.40;99.90;;;;;;5036142;28;20216;-69
2021/05/17 06:09:27;;;;;;;4.10;0.50;;;13.50;99.90;;;;;;5035853;28;20176;-70
2021/05/17 06:11:55;;;;;;;4.03;0.43;;;13.50;99.90;;;;;;5035323;28;20229;-70
2021/05/17 06:14:22;;;;;;;4.60;0.50;;;13.40;99.90;;;;;;5035530;28;20526;-70
2021/05/17 06:16:48;;;;;;;3.90;0.30;;;13.40;99.90;;;;;;5049010;28;20788;-72
2021/05/17 06:19:14;;;;;;;3.87;0.40;;;13.30;99.90;;;;;;5055713;28;20417;-70
2021/05/17 06:21:40;;;;;;;3.97;0.50;;;13.20;99.90;;;;;;5043104;28;20422;-69
2021/05/17 06:24:08;;;;;;;3.83;0.30;;;13.10;99.90;;;;;;5035810;28;20563;-67
2021/05/17 06:26:34;;;;;;;5.07;0.50;;;13.00;99.90;;;;;;5028452;28;20448;-69
2021/05/17 06:29:00;;;;;;;3.90;0.40;;;12.90;99.90;;;;;;5054288;28;20450;-70
2021/05/17 06:31:26;;;;;;;5.30;0.50;;;12.90;99.90;;;;;;5035804;28;20835;-66
2021/05/17 06:33:52;;;;;;;4.00;0.63;;;12.80;99.90;;;;;;5055199;28;20632;-71
2021/05/17 06:36:18;;;;;;;3.90;0.50;;;12.90;99.90;;;;;;5043753;28;20441;-72
2021/05/17 06:38:44;;;;;;;4.50;0.93;;;12.90;99.90;;;;;;5035460;28;20406;-69
2021/05/17 06:41:11;;;;;;;4.20;0.40;;;12.90;99.90;;;;;;5031581;28;20431;-70
2021/05/17 06:43:38;;;;;;;4.40;0.57;;;12.90;99.90;;;;;;5034542;28;20422;-67
2021/05/17 06:46:07;;;;;;;4.23;0.63;;;12.90;99.90;;;;;;5041698;28;20445;-73
2021/05/17 06:48:41;;;;;;;4.30;0.50;;;12.90;99.90;;;;;;5015426;28;20961;-70
2021/05/17 06:51:11;;;;;;;4.97;0.50;;;12.90;99.90;;;;;;5018968;28;20502;-70
2021/05/17 06:53:39;;;;;;;4.00;0.55;;;12.90;99.90;;;;;;5048011;28;20514;-70
2021/05/17 06:56:07;;;;;;;4.10;0.60;;;13.00;99.90;;;;;;5017547;28;20222;-67
2021/05/17 06:58:51;;;;;;;3.87;0.30;;;13.00;99.90;;;;;;5036304;28;20431;-70
2021/05/17 07:01:17;;;;;;;4.23;0.53;;;13.10;99.90;;;;;;5034405;28;20505;-70
2021/05/17 07:03:43;;;;;;;4.40;0.50;;;13.30;99.90;;;;;;5035061;28;20517;-72
2021/05/17 07:06:11;;;;;;;4.33;0.60;;;13.50;99.90;;;;;;5035975;28;20519;-70
2021/05/17 07:14:02;;;;;;;3.87;0.40;;;14.40;99.90;;;;;;5034714;28;20408;-70
2021/05/17 07:16:28;;;;;;;4.00;0.43;;;14.60;99.90;;;;;;5030192;28;20514;-70
2021/05/17 07:18:54;;;;;;;4.60;1.47;;;14.80;99.90;;;;;;5053315;28;20424;-69
2021/05/17 07:23:45;;;;;;;4.60;1.30;;;14.90;99.90;;;;;;5034531;28;20421;-70
2021/05/17 07:26:16;;;;;;;4.00;0.50;;;15.10;99.90;;;;;;5039728;28;20209;-69
2021/05/17 07:28:43;;;;;;;4.63;0.63;;;15.10;99.80;;;;;;5052847;28;20455;-70
2021/05/17 07:31:09;;;;;;;3.80;0.50;;;15.10;99.40;;;;;;5044899;28;20387;-69
2021/05/17 07:33:37;;;;;;;3.97;0.47;;;15.00;99.60;;;;;;5052491;28;20426;-69
2021/05/17 07:36:04;;;;;;;3.77;0.40;;;14.80;99.90;;;;;;5052864;28;20436;-69
2021/05/17 07:38:32;;;;;;;4.93;0.50;;;14.70;99.90;;;;;;5054529;28;20419;-69
2021/05/17 07:41:00;;;;;;;3.90;0.60;;;14.70;99.90;;;;;;5044866;28;20420;-70
2021/05/17 07:43:26;;;;;;;3.80;0.40;;;14.80;99.90;;;;;;5035124;28;20466;-70
2021/05/17 07:45:52;;;;;;;3.90;0.63;;;15.00;99.90;;;;;;5039408;28;20487;-69
2021/05/17 07:48:20;;;;;;;3.90;0.47;;;15.60;99.90;;;;;;5054278;28;20946;-70
2021/05/17 07:50:46;;;;;;;4.87;0.50;;;16.70;99.90;;;;;;5048458;28;20170;-70
2021/05/17 07:53:13;;;;;;;3.80;0.60;;;17.90;97.70;;;;;;5035787;28;20949;-69
2021/05/17 07:55:40;;;;;;;3.50;0.40;;;18.50;95.20;;;;;;5023414;28;20519;-71
2021/05/17 07:58:06;;;;;;;3.87;0.50;;;19.30;92.90;;;;;;5017481;28;20862;-70
2021/05/17 08:00:32;;;;;;;4.20;0.43;;;19.40;91.60;;;;;;5034365;28;20482;-70
2021/05/17 08:02:58;;;;;;;3.40;0.30;;;19.50;91.60;;;;;;5043003;28;20236;-71
2021/05/17 08:05:24;;;;;;;3.77;0.37;;;20.20;91.20;;;;;;5053821;28;20204;-70
2021/05/17 08:07:49;;;;;;;3.40;0.40;;;20.90;89.20;;;;;;5046162;28;20539;-70
2021/05/17 08:10:16;;;;;;;3.20;0.30;;;20.80;86.60;;;;;;5021084;28;20395;-69
2021/05/17 08:12:42;;;;;;;4.63;0.43;;;20.60;87.40;;;;;;5039778;28;20162;-70
2021/05/17 08:15:08;;;;;;;3.90;0.80;;;20.80;87.50;;;;;;5035374;28;20501;-67
2021/05/17 08:17:35;;;;;;;3.60;0.60;;;21.00;86.90;;;;;;5047050;28;20185;-68
2021/05/17 08:20:02;;;;;;;3.47;0.57;;;21.10;84.10;;;;;;5033886;28;20496;-68
2021/05/17 08:22:28;;;;;;;3.60;0.70;;;20.80;82.70;;;;;;5024616;28;20926;-67
2021/05/17 08:24:55;;;;;;;3.70;0.90;;;20.20;82.00;;;;;;5033629;28;20449;-70
2021/05/17 08:27:21;;;;;;;3.30;0.50;;;19.60;84.30;;;;;;5053457;28;20184;-70
2021/05/17 08:29:47;;;;;;;3.73;1.00;;;19.60;86.00;;;;;;5053238;28;20401;-68
2021/05/17 08:32:12;;;;;;;3.97;0.93;;;20.50;87.00;;;;;;5016044;28;20441;-70
2021/05/17 08:34:41;;;;;;;3.40;0.47;;;21.60;84.30;;;;;;5033034;28;20197;-70
2021/05/17 08:37:07;;;;;;;4.27;0.50;;;22.50;80.30;;;;;;5052010;28;20184;-69
2021/05/17 08:39:32;;;;;;;3.20;0.40;;;22.90;77.90;;;;;;5035131;28;20984;-69
2021/05/17 08:41:59;;;;;;;3.63;0.50;;;23.50;76.10;;;;;;5050361;28;20478;-69
2021/05/17 08:44:26;;;;;;;3.10;0.40;;;23.50;73.50;;;;;;5052888;28;20220;-69
2021/05/17 08:46:52;;;;;;;3.40;0.70;;;23.30;72.70;;;;;;5037052;28;20436;-69
2021/05/17 08:49:18;;;;;;;3.00;0.40;;;23.40;72.40;;;;;;5033250;28;20444;-70
2021/05/17 08:51:45;;;;;;;3.80;0.60;;;23.80;69.80;;;;;;5046688;28;20420;-69
2021/05/17 08:54:11;;;;;;;3.10;0.40;;;24.40;69.40;;;;;;5052875;28;20888;-69
2021/05/17 08:56:45;;;;;;;3.27;0.50;;;25.30;69.10;;;;;;5039627;28;20427;-70
2021/05/17 08:59:14;;;;;;;2.80;0.50;;;26.10;68.00;;;;;;5033329;28;20412;-70
2021/05/17 09:01:41;;;;;;;2.80;0.50;;;26.20;65.60;;;;;;5036560;28;20436;-71
2021/05/17 09:04:10;;;;;;;2.80;0.50;;;25.80;61.00;;;;;;5032916;28;20413;-70
2021/05/17 09:06:57;;;;;;;2.83;0.50;;;25.00;62.30;;;;;;5027236;28;20409;-70
2021/05/17 09:09:37;;;;;;;2.70;0.40;;;24.40;63.70;;;;;;5053282;28;20474;-70
2021/05/17 09:12:12;;;;;;;3.10;0.70;;;24.40;64.80;;;;;;5037515;28;20424;-70
2021/05/17 09:14:39;;;;;;;2.60;0.40;;;24.40;66.20;;;;;;5032582;28;20489;-71
2021/05/17 09:17:07;;;;;;;3.63;0.40;;;24.50;65.10;;;;;;5020003;28;20410;-71
2021/05/17 09:19:33;;;;;;;2.67;0.40;;;24.70;63.60;;;;;;5013728;28;20405;-72
2021/05/17 09:22:07;;;;;;;3.10;0.90;;;24.70;64.00;;;;;;5042312;28;20420;-70
2021/05/17 09:24:35;;;;;;;4.17;1.37;;;24.50;62.50;;;;;;5052477;28;20395;-71
2021/05/17 09:27:01;;;;;;;2.80;0.60;;;24.00;63.40;;;;;;5050958;28;20437;-71
2021/05/17 09:29:27;;;;;;;2.70;0.40;;;23.60;64.60;;;;;;5053030;28;20462;-70
2021/05/17 09:31:54;;;;;;;2.70;0.47;;;23.00;67.40;;;;;;5036991;28;20695;-70
2021/05/17 09:34:33;;;;;;;2.60;0.40;;;22.60;66.60;;;;;;5032438;28;20795;-70
2021/05/17 09:37:02;;;;;;;3.17;0.60;;;21.80;68.20;;;;;;5047373;28;20461;-70
2021/05/17 09:39:28;;;;;;;3.00;0.50;;;20.50;77.20;;;;;;5044039;28;20470;-69
2021/05/17 09:41:56;;;;;;;3.10;0.60;;;19.60;80.10;;;;;;5046779;28;20830;-69
2021/05/17 09:44:25;;;;;;;3.00;0.50;;;19.00;83.20;;;;;;5052087;28;20696;-71
2021/05/17 09:46:54;;;;;;;3.00;0.57;;;18.60;86.80;;;;;;5032900;28;20412;-70
2021/05/17 09:49:51;;;;;;;2.87;0.43;;;18.30;91.20;;;;;;5032621;28;20510;-71
2021/05/17 09:52:19;;;;;;;3.10;0.43;;;18.20;95.00;;;;;;5032900;28;20413;-69
2021/05/17 09:55:02;;;;;;;2.90;0.40;;;18.50;92.10;;;;;;5024856;28;20525;-69
2021/05/17 09:57:46;;;;;;;3.00;0.40;;;18.80;93.10;;;;;;5052697;28;20408;-68
2021/05/17 10:00:25;;;;;;;2.87;0.40;;;18.80;92.70;;;;;;5052013;28;20411;-69
2021/05/17 10:02:54;;;;;;;2.90;0.43;;;19.00;92.40;;;;;;5052155;28;20424;-69
2021/05/17 10:05:22;;;;;;;2.80;0.40;;;19.30;89.80;;;;;;5048440;28;21014;-69
2021/05/17 10:07:56;;;;;;;3.10;0.40;;;19.30;89.40;;;;;;5036278;28;20445;-69
2021/05/17 10:10:23;;;;;;;3.00;0.60;;;19.30;84.40;;;;;;5030432;28;20421;-70
2021/05/17 10:12:51;;;;;;;2.90;0.40;;;19.10;84.20;;;;;;5052710;28;20503;-68
2021/05/17 10:15:18;;;;;;;3.10;0.50;;;18.80;87.00;;;;;;5050179;28;20436;-70
2021/05/17 10:17:44;;;;;;;3.30;0.50;;;18.30;88.30;;;;;;5025954;28;20808;-70
2021/05/17 10:20:15;;;;;;;3.10;0.50;;;17.80;89.90;;;;;;5006126;28;21003;-70
2021/05/17 10:22:41;;;;;;;2.90;0.50;;;17.40;91.10;;;;;;5056418;28;20751;-68
2021/05/17 10:25:09;;;;;;;2.90;0.43;;;17.50;93.90;;;;;;5043085;28;20985;-68
2021/05/17 10:27:43;;;;;;;3.97;0.50;;;17.80;91.00;;;;;;5035631;28;20463;-70
2021/05/17 10:30:10;;;;;;;3.00;0.40;;;18.40;91.60;;;;;;5046761;28;20474;-70
2021/05/17 10:32:58;;;;;;;3.20;0.40;;;19.40;90.90;;;;;;5055712;28;20408;-70
2021/05/17 10:35:30;;;;;;;2.90;0.40;;;20.10;85.60;;;;;;5042177;28;20594;-70
2021/05/17 10:38:26;;;;;;;4.03;1.37;;;21.00;86.20;;;;;;5036142;28;20492;-69
2021/05/17 10:44:18;;;;;;;2.93;0.47;;;21.40;79.30;;;;;;5044565;28;20434;-69
2021/05/17 10:46:44;;;;;;;2.90;0.37;;;21.00;78.20;;;;;;5015954;28;20425;-69
2021/05/17 10:49:38;;;;;;;4.60;1.00;;;20.40;79.50;;;;;;5001830;28;20539;-69
2021/05/17 10:52:04;;;;;;;2.90;0.40;;;18.90;86.20;;;;;;5031779;28;20186;-68
2021/05/17 10:54:35;;;;;;;3.20;0.53;;;18.80;88.90;;;;;;5035774;28;20437;-69
2021/05/17 10:57:05;;;;;;;2.90;0.40;;;17.70;91.30;;;;;;5031850;28;20181;-70
2021/05/17 11:02:16;;;;;;;3.30;0.60;;;15.60;95.20;;;;;;5031939;28;20388;-69
2021/05/17 11:04:48;;;;;;;3.10;0.30;;;15.00;96.90;;;;;;5017462;28;20444;-69
2021/05/17 11:07:15;;;;;;;3.00;0.40;;;14.80;98.80;;;;;;5031633;28;20495;-68
2021/05/17 11:10:01;;;;;;;3.43;0.50;;;15.10;99.90;;;;;;5034800;28;20788;-69
2021/05/17 11:12:27;;;;;;;3.10;0.40;;;15.50;99.90;;;;;;5031828;28;20424;-68
2021/05/17 11:15:10;;;;;;;3.57;0.40;;;15.80;99.90;;;;;;5035312;28;20455;-72
2021/05/17 11:17:51;;;;;;;3.10;0.40;;;16.00;99.90;;;;;;5035327;28;20217;-65
2021/05/17 11:20:43;;;;;;;3.50;0.70;;;16.10;99.90;;;;;;5049198;28;20416;-65
2021/05/17 11:23:12;;;;;;;3.40;0.40;;;16.40;99.90;;;;;;5015399;28;20908;-67
2021/05/17 11:25:59;;;;;;;3.20;0.40;;;16.70;99.90;;;;;;5025616;28;20816;-69
2021/05/17 11:28:40;;;;;;;3.50;0.80;;;17.00;99.70;;;;;;5018113;28;20541;-66
2021/05/17 11:31:35;;;;;;;3.40;0.40;;;17.20;98.70;;;;;;5054277;28;20419;-67
2021/05/17 11:34:01;;;;;;;3.63;0.53;;;17.50;98.50;;;;;;5048129;28;20423;-65
2021/05/17 11:36:27;;;;;;;3.40;0.60;;;17.60;96.40;;;;;;5053803;28;20815;-68
2021/05/17 11:39:13;;;;;;;3.17;0.43;;;17.30;95.40;;;;;;5036162;28;20283;-67
2021/05/17 11:41:53;;;;;;;3.50;0.73;;;17.00;95.80;;;;;;5034340;28;20420;-70
2021/05/17 11:44:26;;;;;;;3.40;0.60;;;16.70;96.60;;;;;;5053361;28;20826;-68
2021/05/17 11:47:03;;;;;;;3.60;0.90;;;16.40;98.50;;;;;;5036742;28;20455;-67
2021/05/17 11:49:32;;;;;;;3.70;0.43;;;15.90;99.90;;;;;;5033303;28;20814;-70
2021/05/17 11:52:00;;;;;;;4.00;0.53;;;15.50;99.90;;;;;;5046262;28;20420;-69
2021/05/17 11:54:33;;;;;;;3.30;0.47;;;15.20;99.90;;;;;;5014290;28;20788;-69
2021/05/17 11:57:00;;;;;;;3.20;0.43;;;15.00;99.90;;;;;;5028065;28;20466;-68
2021/05/17 11:59:28;;;;;;;3.30;0.40;;;15.00;99.90;;;;;;5034075;28;20409;-68
2021/05/17 12:01:59;;;;;;;3.40;0.60;;;15.20;99.90;;;;;;5042550;28;20470;-68
2021/05/17 12:04:34;;;;;;;4.80;0.80;;;15.60;99.90;;;;;;5047781;28;20427;-68
2021/05/17 12:07:03;;;;;;;4.70;0.60;;;15.90;99.90;;;;;;5042349;28;20474;-67
2021/05/17 12:09:42;;;;;;;3.40;0.40;;;16.20;99.90;;;;;;5033277;28;20810;-67
2021/05/17 12:12:13;;;;;;;3.80;0.60;;;16.30;99.90;;;;;;5033343;28;20425;-66
2021/05/17 12:14:41;;;;;;;3.30;0.50;;;16.50;99.90;;;;;;5033219;28;20508;-66
2021/05/17 12:17:27;;;;;;;3.73;0.57;;;16.60;99.90;;;;;;5033890;28;20420;-66
2021/05/17 12:19:59;;;;;;;4.90;0.93;;;16.70;99.90;;;;;;5033343;28;20452;-67
2021/05/17 12:22:35;;;;;;;3.40;0.60;;;16.70;99.90;;;;;;5042166;28;20489;-67
2021/05/17 12:25:07;;;;;;;3.50;0.50;;;16.70;99.90;;;;;;5040488;28;20440;-67
2021/05/17 12:27:32;;;;;;;3.83;0.63;;;16.60;99.90;;;;;;5052390;28;20427;-67
2021/05/17 12:30:03;;;;;;;3.60;0.60;;;16.70;98.90;;;;;;5052609;28;20899;-67
2021/05/17 12:32:38;;;;;;;4.00;1.10;;;16.80;99.90;;;;;;5053600;28;20265;-69
2021/05/17 12:35:14;;;;;;;3.40;0.60;;;17.20;99.90;;;;;;5051463;28;20427;-68
2021/05/17 12:37:41;;;;;;;3.50;0.53;;;17.40;99.60;;;;;;5033588;28;20423;-66
2021/05/17 12:40:12;;;;;;;3.30;0.30;;;17.60;97.30;;;;;;5033103;28;20512;-68
2021/05/17 12:42:39;;;;;;;3.57;1.00;;;17.70;96.50;;;;;;5031850;28;20439;-67
2021/05/17 12:45:08;;;;;;;3.57;0.70;;;17.90;97.40;;;;;;5026639;28;20456;-69
2021/05/17 12:47:42;;;;;;;3.40;0.50;;;18.00;97.20;;;;;;5033184;28;20502;-66
2021/05/17 12:50:18;;;;;;;3.50;0.40;;;18.20;94.70;;;;;;5032965;28;20859;-67
2021/05/17 12:52:44;;;;;;;3.20;0.40;;;18.20;93.00;;;;;;5053282;28;20514;-69
2021/05/17 12:55:23;;;;;;;3.23;0.47;;;18.10;91.80;;;;;;5051871;28;20431;-64
2021/05/17 12:57:59;;;;;;;3.17;0.50;;;18.00;92.20;;;;;;5033098;28;20418;-69
2021/05/17 13:00:43;;;;;;;3.20;0.40;;;18.00;92.30;;;;;;5034031;28;20405;-68
2021/05/17 13:03:12;;;;;;;3.63;0.57;;;18.00;93.10;;;;;;5032357;28;20917;-68
2021/05/17 13:05:56;;;;;;;3.10;0.40;;;18.20;91.40;;;;;;5022776;28;20448;-69
2021/05/17 13:08:46;;;;;;;3.10;0.40;;;18.20;91.90;;;;;;5032658;28;20453;-69
2021/05/17 13:11:31;;;;;;;3.40;0.50;;;18.20;92.20;;;;;;5032248;28;20425;-67
2021/05/17 13:13:59;;;;;;;4.20;0.50;;;18.20;90.30;;;;;;5031928;28;20493;-67
2021/05/17 13:16:37;;;;;;;3.20;0.40;;;18.00;89.80;;;;;;5032840;28;20779;-69
2021/05/17 13:33:06;;;;;;;3.20;0.50;;;18.00;89.90;;;;;;5032485;28;20402;-69
2021/05/17 13:35:32;;;;;;;3.10;0.40;;;18.00;88.90;;;;;;5030107;28;20446;-67
2021/05/17 13:37:59;;;;;;;4.20;1.20;;;18.00;88.80;;;;;;5041740;28;20475;-66